createdAt,value
2018-01-24T00:00:18.927Z,99.20
2018-01-24T00:02:46.758Z,99.16
2018-01-24T00:05:14.494Z,99.31
2018-01-24T00:07:42.238Z,99.26
2018-01-24T00:10:09.904Z,99.13
2018-01-24T00:12:37.675Z,99.19
2018-01-24T00:15:05.453Z,99.14
2018-01-24T00:17:33.232Z,99.23
2018-01-24T00:20:01.044Z,99.25
2018-01-24T00:22:28.790Z,99.36
2018-01-24T00:24:56.539Z,99.32
2018-01-24T00:27:24.341Z,99.28
2018-01-24T00:29:52.061Z,99.27
2018-01-24T00:32:19.812Z,99.29
2018-01-24T00:34:47.536Z,99.23
2018-01-24T00:37:15.380Z,99.18
2018-01-24T00:39:43.093Z,99.16
2018-01-24T00:42:10.848Z,99.16
2018-01-24T00:44:38.602Z,99.10
2018-01-24T00:47:06.388Z,98.91
2018-01-24T00:49:34.094Z,98.85
2018-01-24T00:52:02.366Z,98.88
2018-01-24T00:54:30.040Z,98.79
2018-01-24T00:56:57.738Z,98.66
2018-01-24T00:59:25.503Z,98.62
2018-01-24T01:01:53.343Z,98.69
2018-01-24T01:04:21.350Z,98.71
2018-01-24T01:06:49.069Z,98.71
2018-01-24T01:09:16.761Z,98.70
2018-01-24T01:11:44.456Z,98.52
2018-01-24T01:14:12.651Z,98.56
2018-01-24T01:16:40.334Z,98.55
2018-01-24T01:19:08.382Z,98.46
2018-01-24T01:21:36.142Z,98.40
2018-01-24T01:24:03.809Z,98.42
2018-01-24T01:26:31.699Z,98.33
2018-01-24T01:28:59.368Z,98.28
2018-01-24T01:31:27.122Z,98.26
2018-01-24T01:33:54.829Z,98.39
2018-01-24T01:36:22.488Z,98.36
2018-01-24T01:38:50.203Z,98.36
2018-01-24T01:41:18.245Z,98.50
2018-01-24T01:43:45.923Z,98.45
2018-01-24T01:46:13.609Z,98.29
2018-01-24T01:48:41.414Z,98.37
2018-01-24T01:51:09.227Z,98.46
2018-01-24T01:53:36.965Z,98.41
2018-01-24T01:56:04.701Z,98.38
2018-01-24T01:58:32.376Z,98.13
2018-01-24T02:01:00.109Z,97.96
2018-01-24T02:03:28.352Z,97.72
2018-01-24T02:05:56.032Z,97.65
2018-01-24T02:08:23.732Z,97.72
2018-01-24T02:10:51.395Z,97.88
2018-01-24T02:13:19.146Z,97.75
2018-01-24T02:15:47.068Z,97.69
2018-01-24T02:18:14.838Z,97.56
2018-01-24T02:20:42.556Z,97.49
2018-01-24T02:23:10.409Z,97.25
2018-01-24T02:25:38.181Z,97.04
2018-01-24T02:28:05.931Z,96.98
2018-01-24T02:30:33.676Z,96.76
2018-01-24T02:33:01.384Z,96.60
2018-01-24T02:35:29.242Z,96.56
2018-01-24T02:37:56.993Z,96.53
2018-01-24T02:40:24.643Z,96.42
2018-01-24T02:42:52.376Z,96.08
2018-01-24T02:45:20.107Z,95.84
2018-01-24T02:47:47.801Z,95.86
2018-01-24T02:50:15.533Z,95.87
2018-01-24T02:52:43.261Z,95.74
2018-01-24T02:55:10.911Z,95.53
2018-01-24T02:57:38.986Z,95.48
2018-01-24T03:00:06.810Z,95.52
2018-01-24T03:02:34.590Z,95.64
2018-01-24T03:05:02.358Z,95.33
2018-01-24T03:07:30.053Z,95.27
2018-01-24T03:09:57.837Z,95.29
2018-01-24T03:12:25.540Z,95.32
2018-01-24T03:14:53.259Z,95.25
2018-01-24T03:17:20.952Z,95.29
2018-01-24T03:19:48.621Z,95.43
2018-01-24T03:22:16.768Z,95.30
2018-01-24T03:24:44.492Z,95.26
2018-01-24T03:27:12.559Z,95.16
2018-01-24T03:29:40.634Z,95.08
2018-01-24T03:32:08.320Z,95.03
2018-01-24T03:34:36.100Z,95.12
2018-01-24T03:37:03.835Z,95.08
2018-01-24T03:39:31.614Z,95.15
2018-01-24T03:41:59.662Z,95.08
2018-01-24T03:44:27.432Z,95.02
2018-01-24T03:46:55.608Z,94.98
2018-01-24T03:49:23.329Z,94.93
2018-01-24T03:51:51.303Z,94.88
2018-01-24T03:54:19.000Z,94.94
2018-01-24T03:56:46.692Z,95.07
2018-01-24T03:59:14.430Z,95.18
2018-01-24T04:01:42.142Z,95.16
2018-01-24T04:04:09.869Z,95.09
2018-01-24T04:06:37.916Z,95.18
2018-01-24T04:09:05.660Z,95.26
2018-01-24T04:11:34.165Z,95.23
2018-01-24T04:14:01.853Z,95.09
2018-01-24T04:16:29.890Z,95.00
2018-01-24T04:18:57.648Z,94.90
2018-01-24T04:21:25.341Z,94.77
2018-01-24T04:23:53.071Z,94.45
2018-01-24T04:26:21.064Z,94.24
2018-01-24T04:28:48.783Z,94.04
2018-01-24T04:31:16.552Z,93.78
2018-01-24T04:33:44.609Z,93.68
2018-01-24T04:36:12.282Z,93.59
2018-01-24T04:38:40.080Z,93.54
2018-01-24T04:41:08.501Z,93.33
2018-01-24T04:43:36.190Z,93.16
2018-01-24T04:46:04.406Z,92.85
2018-01-24T04:48:32.423Z,92.74
2018-01-24T04:51:00.150Z,92.49
2018-01-24T04:53:27.866Z,92.46
2018-01-24T04:55:55.981Z,92.69
2018-01-24T04:58:23.746Z,92.80
2018-01-24T05:00:51.463Z,92.96
2018-01-24T05:03:19.213Z,93.18
2018-01-24T05:05:46.978Z,93.44
2018-01-24T05:08:14.744Z,93.76
2018-01-24T05:10:42.505Z,93.82
2018-01-24T05:13:10.272Z,93.83
2018-01-24T05:15:41.433Z,93.85
2018-01-24T05:18:09.137Z,93.99
2018-01-24T05:23:45.916Z,94.20
2018-01-24T05:26:14.015Z,94.36
2018-01-24T05:28:42.178Z,94.42
2018-01-24T05:31:09.915Z,94.66
2018-01-24T05:33:37.656Z,94.85
2018-01-24T05:36:05.721Z,95.02
2018-01-24T05:38:33.467Z,94.97
2018-01-24T05:41:01.258Z,94.88
2018-01-24T05:43:29.092Z,95.42
2018-01-24T05:45:56.858Z,95.35
2018-01-24T05:48:24.621Z,95.56
2018-01-24T05:50:52.320Z,95.61
2018-01-24T05:53:20.119Z,95.85
2018-01-24T05:55:48.899Z,95.83
2018-01-24T05:58:16.644Z,96.03
2018-01-24T06:00:44.388Z,96.18
2018-01-24T06:03:12.189Z,96.33
2018-01-24T06:05:40.334Z,96.51
2018-01-24T06:08:08.083Z,96.61
2018-01-24T06:10:36.234Z,96.74
2018-01-24T06:13:04.297Z,97.02
2018-01-24T06:15:31.973Z,97.03
2018-01-24T06:17:59.755Z,97.36
2018-01-24T06:20:27.457Z,97.30
2018-01-24T06:22:55.250Z,97.43
2018-01-24T06:25:22.972Z,97.36
2018-01-24T06:27:50.704Z,97.42
2018-01-24T06:30:18.422Z,97.51
2018-01-24T06:32:46.513Z,97.56
2018-01-24T06:35:14.268Z,97.59
2018-01-24T06:37:41.991Z,97.70
2018-01-24T06:40:09.719Z,97.63
2018-01-24T06:42:38.564Z,97.66
2018-01-24T06:45:06.241Z,97.65
2018-01-24T06:47:34.441Z,97.65
2018-01-24T06:50:02.195Z,97.68
2018-01-24T06:52:29.996Z,97.61
2018-01-24T06:54:57.789Z,97.65
2018-01-24T06:57:25.538Z,97.62
2018-01-24T06:59:53.284Z,97.68
2018-01-24T07:02:21.551Z,97.69
2018-01-24T07:04:49.315Z,97.62
2018-01-24T07:07:17.265Z,97.62
2018-01-24T07:09:45.054Z,97.65
2018-01-24T07:12:24.439Z,97.47
2018-01-24T07:14:54.408Z,97.53
2018-01-24T07:17:22.215Z,97.43
2018-01-24T07:19:50.021Z,97.38
2018-01-24T07:22:17.765Z,97.42
2018-01-24T07:24:45.481Z,97.41
2018-01-24T07:27:13.234Z,97.49
2018-01-24T07:29:40.998Z,97.46
2018-01-24T07:32:08.722Z,97.36
2018-01-24T07:34:36.554Z,97.24
2018-01-24T07:37:04.298Z,97.11
2018-01-24T07:39:32.803Z,97.12
2018-01-24T07:42:00.739Z,97.03
2018-01-24T07:44:28.443Z,96.76
2018-01-24T07:46:56.257Z,96.66
2018-01-24T07:49:23.993Z,96.52
2018-01-24T07:51:52.187Z,96.21
2018-01-24T07:54:19.912Z,96.00
2018-01-24T07:56:48.038Z,95.86
2018-01-24T07:59:16.009Z,95.69
2018-01-24T08:01:43.888Z,95.33
2018-01-24T08:04:11.630Z,95.41
2018-01-24T08:06:39.400Z,95.28
2018-01-24T08:09:07.240Z,95.17
2018-01-24T08:11:35.849Z,95.09
2018-01-24T08:14:03.552Z,94.95
2018-01-24T08:16:31.257Z,94.85
2018-01-24T08:18:59.126Z,94.76
2018-01-24T08:21:26.877Z,94.70
2018-01-24T08:23:54.599Z,94.81
2018-01-24T08:26:22.275Z,94.84
2018-01-24T08:28:49.992Z,94.85
2018-01-24T08:31:17.751Z,94.67
2018-01-24T08:33:45.466Z,94.44
2018-01-24T08:36:13.205Z,94.42
2018-01-24T08:38:40.946Z,94.45
2018-01-24T08:41:08.657Z,94.26
2018-01-24T08:43:37.094Z,94.20
2018-01-24T08:46:04.098Z,94.19
2018-01-24T08:48:31.802Z,94.22
2018-01-24T08:50:59.617Z,93.88
2018-01-24T08:53:27.757Z,93.73
2018-01-24T08:55:55.465Z,93.39
2018-01-24T08:58:23.268Z,93.23
2018-01-24T09:00:50.988Z,93.17
2018-01-24T09:03:18.832Z,93.12
2018-01-24T09:05:46.575Z,93.06
2018-01-24T09:08:14.643Z,92.81
2018-01-24T09:10:42.614Z,92.77
2018-01-24T09:13:10.324Z,92.82
2018-01-24T09:15:38.010Z,92.75
2018-01-24T09:18:06.012Z,92.67
2018-01-24T09:20:33.745Z,92.43
2018-01-24T09:23:01.492Z,92.33
2018-01-24T09:25:29.327Z,92.35
2018-01-24T09:27:57.029Z,92.03
2018-01-24T09:30:25.158Z,91.75
2018-01-24T09:32:53.107Z,91.30
2018-01-24T09:35:20.803Z,91.24
2018-01-24T09:37:48.555Z,90.93
2018-01-24T09:40:16.277Z,90.85
2018-01-24T09:42:44.098Z,90.90
2018-01-24T09:45:12.734Z,91.04
2018-01-24T09:47:40.472Z,91.09
2018-01-24T09:50:08.243Z,90.75
2018-01-24T09:52:35.971Z,90.48
2018-01-24T09:55:03.707Z,90.45
2018-01-24T09:57:31.456Z,90.54
2018-01-24T09:59:59.140Z,90.46
2018-01-24T10:02:26.827Z,90.22
2018-01-24T10:04:54.552Z,90.43
2018-01-24T10:07:22.301Z,90.28
2018-01-24T10:09:50.076Z,90.41
2018-01-24T10:12:18.290Z,90.23
2018-01-24T10:14:46.110Z,90.22
2018-01-24T10:17:13.837Z,89.80
2018-01-24T10:19:41.528Z,89.68
2018-01-24T10:22:09.253Z,89.86
2018-01-24T10:24:37.052Z,89.86
2018-01-24T10:27:04.802Z,89.78
2018-01-24T10:29:32.500Z,89.89
2018-01-24T10:32:00.585Z,89.77
2018-01-24T10:34:28.343Z,89.76
2018-01-24T10:36:56.342Z,89.65
2018-01-24T10:39:24.067Z,89.44
2018-01-24T10:41:51.911Z,89.18
2018-01-24T10:44:20.033Z,89.26
2018-01-24T10:46:47.761Z,88.98
2018-01-24T10:49:15.518Z,89.04
2018-01-24T10:51:43.299Z,89.16
2018-01-24T10:54:11.031Z,89.07
2018-01-24T10:56:38.808Z,88.75
2018-01-24T10:59:06.572Z,88.51
2018-01-24T11:01:34.816Z,88.73
2018-01-24T11:04:02.598Z,88.68
2018-01-24T11:06:30.329Z,88.65
2018-01-24T11:08:58.176Z,88.64
2018-01-24T11:11:26.007Z,88.66
2018-01-24T11:13:54.132Z,89.02
2018-01-24T11:16:21.870Z,89.13
2018-01-24T11:18:49.629Z,88.69
2018-01-24T11:21:17.638Z,88.74
2018-01-24T11:23:45.462Z,88.78
2018-01-24T11:26:13.199Z,88.41
2018-01-24T11:28:40.924Z,88.45
2018-01-24T11:31:09.109Z,88.26
2018-01-24T11:33:36.843Z,88.49
2018-01-24T11:36:04.567Z,88.32
2018-01-24T11:38:33.121Z,88.44
2018-01-24T11:41:00.879Z,88.10
2018-01-24T11:43:28.616Z,88.23
2018-01-24T11:45:56.831Z,88.37
2018-01-24T11:48:24.923Z,88.28
2018-01-24T11:50:52.649Z,88.29
2018-01-24T11:53:20.614Z,88.48
2018-01-24T11:55:49.018Z,88.20
2018-01-24T11:58:16.807Z,87.91
2018-01-24T12:00:45.051Z,87.79
2018-01-24T12:03:12.831Z,88.22
2018-01-24T12:05:40.985Z,87.81
2018-01-24T12:08:08.955Z,87.59
2018-01-24T12:10:36.640Z,87.37
2018-01-24T12:13:04.423Z,86.91
2018-01-24T12:15:32.211Z,87.11
2018-01-24T12:18:00.053Z,86.68
2018-01-24T12:20:27.785Z,86.75
2018-01-24T12:22:55.507Z,87.00
2018-01-24T12:25:31.754Z,87.08
2018-01-24T12:27:59.889Z,87.41
2018-01-24T12:30:27.624Z,87.30
2018-01-24T12:32:55.502Z,87.34
2018-01-24T12:35:23.274Z,87.27
2018-01-24T12:37:51.235Z,87.29
2018-01-24T12:40:19.091Z,87.56
2018-01-24T12:42:46.865Z,87.42
2018-01-24T12:45:14.577Z,87.46
2018-01-24T12:47:42.504Z,87.31
2018-01-24T12:50:10.272Z,87.42
2018-01-24T12:52:37.999Z,87.45
2018-01-24T12:55:06.008Z,87.25
2018-01-24T12:57:33.833Z,87.29
2018-01-24T13:00:01.680Z,86.93
2018-01-24T13:02:29.481Z,86.88
2018-01-24T13:04:57.244Z,86.76
2018-01-24T13:07:25.068Z,86.38
2018-01-24T13:09:52.774Z,86.60
2018-01-24T13:12:20.555Z,86.60
2018-01-24T13:14:48.731Z,86.67
2018-01-24T13:17:16.419Z,86.68
2018-01-24T13:19:44.280Z,86.53
2018-01-24T13:22:12.031Z,86.07
2018-01-24T13:24:39.782Z,85.85
2018-01-24T13:27:07.628Z,86.12
2018-01-24T13:29:35.360Z,85.75
2018-01-24T13:32:03.068Z,85.33
2018-01-24T13:34:31.016Z,85.58
2018-01-24T13:36:58.757Z,84.94
2018-01-24T13:39:27.259Z,84.27
2018-01-24T13:41:54.971Z,83.94
2018-01-24T13:44:23.035Z,83.92
2018-01-24T13:46:51.104Z,83.66
2018-01-24T13:49:18.814Z,83.49
2018-01-24T13:51:46.481Z,83.18
2018-01-24T13:54:14.253Z,82.90
2018-01-24T13:56:42.376Z,82.82
2018-01-24T13:59:10.142Z,83.24
2018-01-24T14:01:37.877Z,83.16
2018-01-24T14:04:05.606Z,83.18
2018-01-24T14:06:33.605Z,82.08
2018-01-24T14:09:01.280Z,82.53
2018-01-24T14:11:29.010Z,82.40
2018-01-24T14:13:56.737Z,82.26
2018-01-24T14:16:24.484Z,82.04
2018-01-24T14:18:52.219Z,81.81
2018-01-24T14:21:19.927Z,81.80
2018-01-24T14:23:47.634Z,81.81
2018-01-24T14:26:15.386Z,80.68
2018-01-24T14:28:43.131Z,80.58
2018-01-24T14:31:11.175Z,81.39
2018-01-24T14:33:39.974Z,81.07
2018-01-24T14:36:07.746Z,81.12
2018-01-24T14:38:35.690Z,81.09
2018-01-24T14:41:03.446Z,81.34
2018-01-24T14:43:31.165Z,80.64
2018-01-24T14:45:58.816Z,80.52
2018-01-24T14:48:26.529Z,80.87
2018-01-24T14:50:54.213Z,80.94
2018-01-24T14:53:22.288Z,80.58
2018-01-24T14:55:50.150Z,80.71
2018-01-24T14:58:17.900Z,80.71
2018-01-24T15:00:45.615Z,80.72
2018-01-24T15:03:13.293Z,80.53
2018-01-24T15:05:40.979Z,80.30
2018-01-24T15:08:08.667Z,80.75
2018-01-24T15:10:36.636Z,80.74
2018-01-24T15:13:04.820Z,80.43
2018-01-24T15:15:32.538Z,80.51
2018-01-24T15:18:00.166Z,80.64
2018-01-24T15:20:27.903Z,80.71
2018-01-24T15:22:55.548Z,80.68
2018-01-24T15:25:23.258Z,80.33
2018-01-24T15:27:51.009Z,80.67
2018-01-24T15:30:18.705Z,80.40
2018-01-24T15:32:46.358Z,79.88
2018-01-24T15:35:14.053Z,79.98
2018-01-24T15:37:41.734Z,79.92
2018-01-24T15:40:09.466Z,79.37
2018-01-24T15:42:37.148Z,80.23
2018-01-24T15:45:04.830Z,80.29
2018-01-24T15:47:32.561Z,80.15
2018-01-24T15:50:00.328Z,80.65
2018-01-24T15:52:27.981Z,80.89
2018-01-24T15:54:55.614Z,81.06
2018-01-24T15:57:23.301Z,81.61
2018-01-24T15:59:50.998Z,81.94
2018-01-24T16:02:18.980Z,81.71
2018-01-24T16:04:47.707Z,81.67
2018-01-24T16:07:15.404Z,81.81
2018-01-24T16:09:43.109Z,81.96
2018-01-24T16:12:10.753Z,82.26
2018-01-24T16:14:38.424Z,82.05
2018-01-24T16:17:06.043Z,82.35
2018-01-24T16:19:33.698Z,82.33
2018-01-24T16:22:01.349Z,82.40
2018-01-24T16:24:32.696Z,82.46
2018-01-24T16:27:00.611Z,82.53
2018-01-24T16:29:28.373Z,82.65
2018-01-24T16:31:56.078Z,82.76
2018-01-24T16:34:23.933Z,82.89
2018-01-24T16:36:51.578Z,83.14
2018-01-24T16:39:19.280Z,83.18
2018-01-24T16:41:47.432Z,82.79
2018-01-24T16:44:15.140Z,82.83
2018-01-24T16:46:42.794Z,82.90
2018-01-24T16:49:10.914Z,82.85
2018-01-24T16:51:38.589Z,82.94
2018-01-24T16:54:06.307Z,83.16
2018-01-24T16:56:34.294Z,83.12
2018-01-24T16:59:01.972Z,83.13
2018-01-24T17:01:30.049Z,83.35
2018-01-24T17:03:58.141Z,82.99
2018-01-24T17:06:25.931Z,82.98
2018-01-24T17:08:53.628Z,82.58
2018-01-24T17:11:22.018Z,82.71
2018-01-24T17:13:49.722Z,82.67
2018-01-24T17:16:17.458Z,82.44
2018-01-24T17:18:45.162Z,82.13
2018-01-24T17:21:12.888Z,81.86
2018-01-24T17:23:40.604Z,81.69
2018-01-24T17:26:15.996Z,81.69
2018-01-24T17:28:43.893Z,81.72
2018-01-24T17:31:13.028Z,81.83
2018-01-24T17:33:40.770Z,81.59
2018-01-24T17:36:08.417Z,80.94
2018-01-24T17:38:36.154Z,80.61
2018-01-24T17:41:03.977Z,80.87
2018-01-24T17:43:31.692Z,80.45
2018-01-24T17:46:00.009Z,80.32
2018-01-24T17:48:27.814Z,80.24
2018-01-24T17:50:55.451Z,80.33
2018-01-24T17:53:23.131Z,80.38
2018-01-24T17:55:51.224Z,80.01
2018-01-24T17:58:18.964Z,79.39
2018-01-24T18:00:47.065Z,79.71
2018-01-24T18:03:15.215Z,79.61
2018-01-24T18:05:44.999Z,79.61
2018-01-24T18:08:13.934Z,79.71
2018-01-24T18:10:41.726Z,79.61
2018-01-24T18:13:09.491Z,79.47
2018-01-24T18:15:37.133Z,79.08
2018-01-24T18:18:04.869Z,79.26
2018-01-24T18:20:32.510Z,79.09
2018-01-24T18:23:00.292Z,79.29
2018-01-24T18:25:28.070Z,79.12
2018-01-24T18:27:55.773Z,79.02
2018-01-24T18:30:24.885Z,79.08
2018-01-24T18:32:52.592Z,78.95
2018-01-24T18:35:20.237Z,78.71
2018-01-24T18:40:31.231Z,78.20
2018-01-24T18:42:58.938Z,78.28
2018-01-24T18:45:26.646Z,78.45
2018-01-24T18:47:54.298Z,78.39
2018-01-24T18:50:22.039Z,77.95
2018-01-24T18:52:49.710Z,78.24
2018-01-24T18:55:17.416Z,78.45
2018-01-24T18:57:45.518Z,78.01
2018-01-24T19:00:13.303Z,78.13
2018-01-24T19:02:40.949Z,77.73
2018-01-24T19:05:08.679Z,78.00
2018-01-24T19:07:36.540Z,77.77
2018-01-24T19:10:04.519Z,78.02
2018-01-24T19:12:32.511Z,77.60
2018-01-24T19:15:00.207Z,77.86
2018-01-24T19:17:27.929Z,77.53
2018-01-24T19:19:55.608Z,77.08
2018-01-24T19:22:23.239Z,77.08
2018-01-24T19:24:51.335Z,77.15
2018-01-24T19:27:19.392Z,77.06
2018-01-24T19:29:47.050Z,77.19
2018-01-24T19:32:14.722Z,77.17
2018-01-24T19:34:42.382Z,76.62
2018-01-24T19:37:10.419Z,76.76
2018-01-24T19:39:38.075Z,76.50
2018-01-24T19:42:05.674Z,76.31
2018-01-24T19:44:33.445Z,77.22
2018-01-24T19:47:01.140Z,77.24
2018-01-24T19:49:29.302Z,77.30
2018-01-24T19:51:57.068Z,77.11
2018-01-24T19:54:24.716Z,76.49
2018-01-24T19:56:52.348Z,76.98
2018-01-24T19:59:20.061Z,77.31
2018-01-24T20:01:47.722Z,76.86
2018-01-24T20:04:15.357Z,78.73
2018-01-24T20:06:43.211Z,79.55
2018-01-24T20:09:10.916Z,79.56
2018-01-24T20:11:39.495Z,79.85
2018-01-24T20:14:07.200Z,79.59
2018-01-24T20:16:34.929Z,79.56
2018-01-24T20:19:02.959Z,79.62
2018-01-24T20:21:30.716Z,79.08
2018-01-24T20:23:58.451Z,79.16
2018-01-24T20:26:26.082Z,79.18
2018-01-24T20:28:53.797Z,79.35
2018-01-24T20:31:21.524Z,79.38
2018-01-24T20:33:49.173Z,80.07
2018-01-24T20:36:16.891Z,80.51
2018-01-24T20:38:44.524Z,79.66
2018-01-24T20:41:12.175Z,80.16
2018-01-24T20:43:40.222Z,79.74
2018-01-24T20:46:07.871Z,79.90
2018-01-24T20:48:35.768Z,79.14
2018-01-24T20:51:03.483Z,79.56
2018-01-24T20:53:31.159Z,81.75
2018-01-24T20:55:58.878Z,83.94
2018-01-24T20:58:26.879Z,85.50
2018-01-24T21:00:54.927Z,86.05
2018-01-24T21:03:22.600Z,86.18
2018-01-24T21:05:50.408Z,87.10
2018-01-24T21:08:18.516Z,87.02
2018-01-24T21:10:46.270Z,87.77
2018-01-24T21:13:14.008Z,88.32
2018-01-24T21:15:41.658Z,88.85
2018-01-24T21:18:10.507Z,89.34
2018-01-24T21:20:38.247Z,89.81
2018-01-24T21:23:08.975Z,89.57
2018-01-24T21:25:36.643Z,89.81
2018-01-24T21:28:04.309Z,89.96
2018-01-24T21:30:43.917Z,90.24
2018-01-24T21:36:29.574Z,90.60
2018-01-24T21:38:57.213Z,90.96
2018-01-24T21:41:25.366Z,90.97
2018-01-24T21:43:53.108Z,91.20
2018-01-24T21:46:20.863Z,90.97
2018-01-24T21:48:48.616Z,91.15
2018-01-24T21:51:16.380Z,91.34
2018-01-24T21:53:44.597Z,91.50
2018-01-24T21:56:12.439Z,91.64
2018-01-24T21:58:40.199Z,91.43
2018-01-24T22:01:07.926Z,91.61
2018-01-24T22:03:35.614Z,91.34
2018-01-24T22:06:03.330Z,91.53
2018-01-24T22:08:31.373Z,91.68
2018-01-24T22:10:59.141Z,91.74
2018-01-24T22:13:26.839Z,91.76
2018-01-24T22:15:54.610Z,91.86
2018-01-24T22:18:22.339Z,91.86
2018-01-24T22:20:50.083Z,91.86
2018-01-24T22:23:17.762Z,91.77
2018-01-24T22:25:45.466Z,91.52
2018-01-24T22:28:13.164Z,91.77
2018-01-24T22:30:40.898Z,91.91
2018-01-24T22:33:08.768Z,92.16
2018-01-24T22:35:36.486Z,92.25
2018-01-24T22:38:04.243Z,92.29
2018-01-24T22:40:31.956Z,92.17
2018-01-24T22:42:59.714Z,92.19
2018-01-24T22:45:28.920Z,92.57
2018-01-24T22:47:58.516Z,92.72
2018-01-24T22:50:26.212Z,92.61
2018-01-24T22:52:53.968Z,92.72
2018-01-24T22:55:22.604Z,92.56
2018-01-24T22:57:50.377Z,92.58
2018-01-24T23:00:20.582Z,92.79
2018-01-24T23:02:48.302Z,92.60
2018-01-24T23:05:16.049Z,92.92
2018-01-24T23:07:43.803Z,92.89
2018-01-24T23:10:11.543Z,92.90
2018-01-24T23:12:39.268Z,92.99
2018-01-24T23:15:07.393Z,93.08
2018-01-24T23:17:35.130Z,93.04
2018-01-24T23:20:02.920Z,93.06
2018-01-24T23:22:30.675Z,92.95
2018-01-24T23:24:58.399Z,92.90
2018-01-24T23:27:26.089Z,93.15
2018-01-24T23:29:53.780Z,92.82
2018-01-24T23:32:21.526Z,92.80
2018-01-24T23:34:49.224Z,92.82
2018-01-24T23:37:17.274Z,92.65
2018-01-24T23:39:45.431Z,92.63
2018-01-24T23:42:13.191Z,92.30
2018-01-24T23:44:40.956Z,92.60
2018-01-24T23:47:08.915Z,92.32
2018-01-24T23:49:36.669Z,92.48
2018-01-24T23:52:04.971Z,92.53
2018-01-24T23:54:32.804Z,92.88
2018-01-24T23:57:00.538Z,92.72
2018-01-24T23:59:28.234Z,92.71
